Time;durP1;ratioP1;P1;durP2;ratioP2;P2;SDS_P1;SDS_P2;PMS_P1;PMS_P2;Temp;Humidity;BMP_temperature;BMP_pressure;BME280_temperature;BME280_humidity;BME280_pressure;Samples;Min_cycle;Max_cycle;Signal;HPM_P1;HPM_P2
2021/04/13 00:01:21;;;;;;;7.13;2.53;;;2.70;86.60;;;;;;5052418;28;20205;-88
2021/04/13 00:03:48;;;;;;;7.37;2.73;;;2.70;86.60;;;;;;5053503;28;20207;-88
2021/04/13 00:06:20;;;;;;;6.17;2.57;;;2.70;86.80;;;;;;5053654;28;20602;-87
2021/04/13 00:08:50;;;;;;;9.13;3.33;;;2.70;86.70;;;;;;5053544;28;20179;-89
2021/04/13 00:11:18;;;;;;;8.20;3.00;;;2.80;86.80;;;;;;5052768;28;20264;-89
2021/04/13 00:13:43;;;;;;;5.37;2.87;;;2.80;86.70;;;;;;5052162;28;20258;-88
2021/04/13 00:16:16;;;;;;;6.03;2.70;;;2.70;86.60;;;;;;5053449;28;20199;-88
2021/04/13 00:18:45;;;;;;;5.53;2.30;;;2.70;86.70;;;;;;5052163;28;20170;-88
2021/04/13 00:21:16;;;;;;;3.87;2.50;;;2.60;86.90;;;;;;5053881;28;20206;-88
2021/04/13 00:23:43;;;;;;;8.30;3.30;;;2.60;86.80;;;;;;5052050;28;20272;-88
2021/04/13 00:26:11;;;;;;;6.97;2.57;;;2.70;87.00;;;;;;5053219;28;20507;-88
2021/04/13 00:28:44;;;;;;;6.30;2.67;;;2.60;86.90;;;;;;5053218;28;20172;-88
2021/04/13 00:31:48;;;;;;;10.10;2.93;;;2.60;86.70;;;;;;5051959;28;20169;-89
2021/04/13 00:35:16;;;;;;;5.87;2.23;;;2.70;86.50;;;;;;5051903;28;20192;-88
2021/04/13 00:37:32;;;;;;;8.63;3.80;;;2.70;86.70;;;;;;5051897;28;20211;-89
2021/04/13 00:40:28;;;;;;;15.50;3.90;;;2.70;86.60;;;;;;5068545;28;20182;-89
2021/04/13 00:42:59;;;;;;;4.80;3.20;;;2.70;86.60;;;;;;5051938;28;20268;-89
2021/04/13 00:45:30;;;;;;;6.20;2.57;;;2.70;86.80;;;;;;5051897;28;20226;-89
2021/04/13 00:47:56;;;;;;;10.10;2.40;;;2.60;87.00;;;;;;5053256;28;20191;-88
2021/04/13 00:50:42;;;;;;;6.37;2.50;;;2.60;86.90;;;;;;5051865;28;20176;-88
2021/04/13 00:53:11;;;;;;;5.93;2.53;;;2.50;86.90;;;;;;5053233;28;20207;-89
2021/04/13 00:55:51;;;;;;;6.60;2.57;;;2.50;86.90;;;;;;5052943;28;20645;-88
2021/04/13 00:58:27;;;;;;;7.77;2.60;;;2.50;87.00;;;;;;5051817;28;20230;-89
2021/04/13 01:01:15;;;;;;;5.70;2.63;;;2.40;87.10;;;;;;5051777;28;20633;-88
2021/04/13 01:04:01;;;;;;;9.00;3.53;;;2.30;87.30;;;;;;5050888;28;20248;-89
2021/04/13 01:06:32;;;;;;;9.17;3.07;;;2.40;87.30;;;;;;5051734;28;20168;-89
2021/04/13 01:09:19;;;;;;;5.17;3.30;;;2.40;87.40;;;;;;5053130;28;20157;-88
2021/04/13 01:11:53;;;;;;;6.13;2.83;;;2.40;87.70;;;;;;5056795;28;20163;-88
2021/04/13 01:14:19;;;;;;;12.77;3.87;;;2.40;87.80;;;;;;5056686;28;20572;-89
2021/04/13 01:16:50;;;;;;;11.10;3.90;;;2.30;88.00;;;;;;5056704;28;20219;-88
2021/04/13 01:19:43;;;;;;;6.27;4.00;;;2.40;88.10;;;;;;5055382;28;20172;-88
2021/04/13 01:23:50;;;;;;;8.27;3.90;;;2.40;87.90;;;;;;5055126;28;20717;-88
2021/04/13 01:25:44;;;;;;;9.33;4.23;;;2.40;87.90;;;;;;5034631;28;20279;-88
2021/04/13 01:28:20;;;;;;;9.27;4.27;;;2.30;88.20;;;;;;5055089;28;20281;-88
2021/04/13 01:30:58;;;;;;;6.63;3.87;;;2.40;88.20;;;;;;5055167;28;20168;-88
2021/04/13 01:33:50;;;;;;;8.07;4.13;;;2.30;88.30;;;;;;5056286;28;20185;-88
2021/04/13 01:36:23;;;;;;;9.97;3.70;;;2.30;88.40;;;;;;5055099;28;20191;-88
2021/04/13 01:39:06;;;;;;;13.67;4.83;;;2.30;88.60;;;;;;5056411;28;20632;-89
2021/04/13 01:41:57;;;;;;;11.10;4.70;;;2.30;88.50;;;;;;5056342;28;20177;-89
2021/04/13 01:44:43;;;;;;;11.77;4.70;;;2.20;88.70;;;;;;5054799;28;20213;-88
2021/04/13 01:47:13;;;;;;;8.17;4.40;;;2.20;88.90;;;;;;5054739;28;20211;-89
2021/04/13 01:49:46;;;;;;;7.37;4.63;;;2.20;88.80;;;;;;5056009;28;20262;-88
2021/04/13 01:52:18;;;;;;;9.97;4.77;;;2.20;88.90;;;;;;5054821;28;20164;-88
2021/04/13 01:54:44;;;;;;;8.40;4.23;;;2.30;88.90;;;;;;5054716;28;20202;-88
2021/04/13 01:57:18;;;;;;;14.63;5.17;;;2.20;89.00;;;;;;5055937;28;20173;-89
2021/04/13 01:59:51;;;;;;;9.50;4.53;;;2.20;89.00;;;;;;5054671;28;20595;-89
2021/04/13 02:02:31;;;;;;;8.80;5.53;;;2.10;89.30;;;;;;5054565;28;20165;-88
2021/04/13 02:05:06;;;;;;;10.73;4.57;;;2.10;89.40;;;;;;5055599;28;20684;-88
2021/04/13 02:07:53;;;;;;;10.17;4.30;;;2.10;89.40;;;;;;5055587;28;20733;-89
2021/04/13 02:10:46;;;;;;;5.87;3.47;;;2.10;89.60;;;;;;5055687;28;20164;-88
2021/04/13 02:13:19;;;;;;;7.93;4.70;;;2.10;89.70;;;;;;5055701;28;20191;-89
2021/04/13 02:15:57;;;;;;;8.60;3.67;;;2.10;89.70;;;;;;5054262;28;20180;-88
2021/04/13 02:18:38;;;;;;;11.13;4.23;;;2.10;89.60;;;;;;5055697;28;20653;-89
2021/04/13 02:21:10;;;;;;;11.00;3.63;;;2.10;89.70;;;;;;5054583;28;20508;-88
2021/04/13 02:23:40;;;;;;;4.73;3.83;;;2.00;89.90;;;;;;5054096;28;20203;-89
2021/04/13 02:26:07;;;;;;;10.27;4.10;;;2.00;90.00;;;;;;5054107;28;20168;-89
2021/04/13 02:28:34;;;;;;;7.50;4.27;;;2.10;90.00;;;;;;5054055;28;20204;-88
2021/04/13 02:31:09;;;;;;;5.97;5.00;;;2.10;90.00;;;;;;5054167;28;20282;-89
2021/04/13 02:33:38;;;;;;;16.00;4.87;;;2.20;90.00;;;;;;5055180;28;20193;-89
2021/04/13 02:36:26;;;;;;;9.90;4.47;;;2.30;90.10;;;;;;5053894;28;20179;-89
2021/04/13 02:38:55;;;;;;;6.90;3.83;;;2.30;90.10;;;;;;5053883;28;20172;-89
2021/04/13 02:41:33;;;;;;;10.57;3.90;;;2.30;90.10;;;;;;5055072;28;20643;-89
2021/04/13 02:44:06;;;;;;;7.33;4.87;;;2.30;89.80;;;;;;5054998;28;20199;-89
2021/04/13 02:46:34;;;;;;;10.43;4.30;;;2.30;89.60;;;;;;5054887;28;20625;-89
2021/04/13 02:49:10;;;;;;;9.03;4.53;;;2.30;89.60;;;;;;5054840;28;20253;-89
2021/04/13 02:52:07;;;;;;;13.60;5.70;;;2.30;89.70;;;;;;5053658;28;20178;-88
2021/04/13 02:54:40;;;;;;;7.70;5.13;;;2.20;89.70;;;;;;5052926;28;20578;-88
2021/04/13 02:57:12;;;;;;;9.57;4.87;;;2.10;90.00;;;;;;5053507;28;20183;-88
2021/04/13 02:59:39;;;;;;;9.00;4.67;;;2.10;90.00;;;;;;5054796;28;20527;-89
2021/04/13 03:02:28;;;;;;;17.07;6.67;;;2.10;89.90;;;;;;5053434;28;20645;-89
2021/04/13 03:04:54;;;;;;;6.97;4.60;;;2.00;89.80;;;;;;5053272;28;20771;-89
2021/04/13 03:07:23;;;;;;;11.90;5.57;;;2.00;90.00;;;;;;5054485;28;20192;-89
2021/04/13 03:09:52;;;;;;;13.43;5.93;;;2.00;90.20;;;;;;5054791;28;20164;-89
2021/04/13 03:12:19;;;;;;;7.80;5.20;;;2.00;90.40;;;;;;5054396;28;20669;-88
2021/04/13 03:14:50;;;;;;;9.33;4.90;;;2.00;90.50;;;;;;5053124;28;20192;-89
2021/04/13 03:17:19;;;;;;;13.27;5.50;;;2.00;90.40;;;;;;5053117;28;20168;-89
2021/04/13 03:19:47;;;;;;;11.03;5.50;;;2.00;90.40;;;;;;5053184;28;20173;-89
2021/04/13 03:22:15;;;;;;;9.60;6.07;;;2.00;90.40;;;;;;5054412;28;20175;-88
2021/04/13 03:24:44;;;;;;;13.90;6.47;;;2.00;90.40;;;;;;5054101;28;20188;-89
2021/04/13 03:27:22;;;;;;;10.00;6.50;;;2.00;90.40;;;;;;5053980;28;20205;-89
2021/04/13 03:30:05;;;;;;;12.47;6.80;;;2.00;90.40;;;;;;5052901;28;20195;-89
2021/04/13 03:32:35;;;;;;;15.97;6.30;;;2.00;90.50;;;;;;5068828;28;20315;-89
2021/04/13 03:35:01;;;;;;;17.33;7.20;;;2.00;90.50;;;;;;5054098;28;20184;-88
2021/04/13 03:37:28;;;;;;;7.37;6.40;;;2.00;90.60;;;;;;5052746;28;20180;-89
2021/04/13 03:39:54;;;;;;;13.43;6.43;;;2.00;90.60;;;;;;5054227;28;20181;-88
2021/04/13 03:42:25;;;;;;;14.73;7.10;;;2.00;90.60;;;;;;5053898;28;20206;-89
2021/04/13 03:44:51;;;;;;;11.27;6.20;;;2.00;90.70;;;;;;5052614;28;20199;-88
2021/04/13 03:47:22;;;;;;;11.63;6.73;;;1.90;90.60;;;;;;5053732;28;20282;-90
2021/04/13 03:49:49;;;;;;;9.30;6.10;;;1.90;90.80;;;;;;5052613;28;20238;-88
2021/04/13 03:52:29;;;;;;;10.33;5.97;;;1.90;90.70;;;;;;5052441;28;20172;-89
2021/04/13 03:54:54;;;;;;;12.67;6.23;;;1.90;90.80;;;;;;5052389;28;20221;-89
2021/04/13 03:57:35;;;;;;;7.70;4.00;;;1.90;90.80;;;;;;5053818;28;20598;-89
2021/04/13 04:00:06;;;;;;;15.20;6.30;;;1.90;90.80;;;;;;5053231;28;20255;-89
2021/04/13 04:02:32;;;;;;;12.70;5.87;;;1.90;90.70;;;;;;5052262;28;20199;-89
2021/04/13 04:05:08;;;;;;;13.37;6.37;;;1.90;90.60;;;;;;5053424;28;20277;-89
2021/04/13 04:07:48;;;;;;;8.53;5.03;;;1.90;90.50;;;;;;5053689;28;20180;-89
2021/04/13 04:10:42;;;;;;;10.80;5.37;;;1.90;90.60;;;;;;5052287;28;20168;-88
2021/04/13 04:13:15;;;;;;;12.20;6.53;;;1.90;90.80;;;;;;5052217;28;20288;-89
2021/04/13 04:15:50;;;;;;;8.60;5.30;;;1.90;90.90;;;;;;5053364;28;20153;-89
2021/04/13 04:18:36;;;;;;;11.43;5.13;;;1.90;91.00;;;;;;5053374;28;20187;-89
2021/04/13 04:21:20;;;;;;;14.13;5.77;;;1.80;91.00;;;;;;5052119;28;20164;-88
2021/04/13 04:23:53;;;;;;;12.00;4.70;;;1.90;91.10;;;;;;5052096;28;20209;-89
2021/04/13 04:26:26;;;;;;;19.03;4.40;;;1.90;91.10;;;;;;5053442;28;20534;-88
2021/04/13 04:28:54;;;;;;;9.03;4.67;;;2.00;91.10;;;;;;5052020;28;20176;-89
2021/04/13 04:31:36;;;;;;;8.40;4.60;;;2.00;91.10;;;;;;5052245;28;20637;-89
2021/04/13 04:34:14;;;;;;;9.47;3.97;;;1.90;91.00;;;;;;5051854;28;20214;-89
2021/04/13 04:36:46;;;;;;;7.63;3.77;;;1.90;90.90;;;;;;5053171;28;20251;-89
2021/04/13 04:39:31;;;;;;;8.60;4.77;;;1.90;90.90;;;;;;5053184;28;20507;-88
2021/04/13 04:42:09;;;;;;;11.00;5.33;;;1.90;90.90;;;;;;5053214;28;20157;-89
2021/04/13 04:44:34;;;;;;;8.30;4.77;;;1.90;90.80;;;;;;5054103;28;20321;-88
2021/04/13 04:47:00;;;;;;;11.80;5.60;;;1.90;90.90;;;;;;5057019;28;20728;-89
2021/04/13 04:49:42;;;;;;;13.23;5.63;;;1.90;91.10;;;;;;5057207;28;20549;-89
2021/04/13 04:52:09;;;;;;;18.63;6.20;;;1.90;91.10;;;;;;5056672;28;20176;-89
2021/04/13 04:54:35;;;;;;;7.50;3.87;;;1.90;91.30;;;;;;5056173;28;20192;-89
2021/04/13 04:57:00;;;;;;;14.87;7.50;;;1.90;91.40;;;;;;5056971;28;20641;-89
2021/04/13 04:59:26;;;;;;;11.73;6.43;;;2.00;91.40;;;;;;5056996;28;20723;-88
2021/04/13 05:01:51;;;;;;;13.13;5.57;;;2.10;91.40;;;;;;5057303;28;20660;-88
2021/04/13 05:04:17;;;;;;;15.00;7.13;;;2.10;91.60;;;;;;5081641;22;20317;-84
2021/04/13 05:06:43;;;;;;;9.60;4.83;;;2.10;91.50;;;;;;5056862;28;20229;-84
2021/04/13 05:09:09;;;;;;;14.90;5.77;;;2.20;91.40;;;;;;5056920;28;20180;-85
2021/04/13 05:11:34;;;;;;;11.83;4.70;;;2.20;91.40;;;;;;5057067;28;20168;-84
2021/04/13 05:14:00;;;;;;;9.80;5.13;;;2.30;91.40;;;;;;5055368;28;20720;-84
2021/04/13 05:16:26;;;;;;;9.33;4.60;;;2.30;91.40;;;;;;5056996;28;20173;-85
2021/04/13 05:18:51;;;;;;;13.43;5.60;;;2.30;91.30;;;;;;5056537;28;20252;-85
2021/04/13 05:21:18;;;;;;;8.63;4.80;;;2.30;91.20;;;;;;5056849;28;20594;-85
2021/04/13 05:23:44;;;;;;;15.37;4.93;;;2.30;91.20;;;;;;5056354;28;20187;-85
2021/04/13 05:26:10;;;;;;;15.47;5.50;;;2.30;91.00;;;;;;5056451;28;20165;-85
2021/04/13 05:28:36;;;;;;;8.03;4.47;;;2.30;91.10;;;;;;5055184;28;20697;-85
2021/04/13 05:31:02;;;;;;;17.67;4.80;;;2.30;91.10;;;;;;5056378;28;20168;-84
2021/04/13 05:33:28;;;;;;;11.27;4.30;;;2.40;91.30;;;;;;5056253;28;20189;-83
2021/04/13 05:35:54;;;;;;;12.73;4.23;;;2.60;91.30;;;;;;5056433;28;20690;-85
2021/04/13 05:38:25;;;;;;;16.50;4.87;;;2.70;91.50;;;;;;5056415;28;20190;-85
2021/04/13 05:40:52;;;;;;;9.97;4.23;;;2.70;91.30;;;;;;5055261;28;20539;-84
2021/04/13 05:43:18;;;;;;;15.70;4.33;;;2.70;91.10;;;;;;5056150;28;20200;-84
2021/04/13 05:45:47;;;;;;;9.13;3.43;;;2.70;91.10;;;;;;5054908;28;20271;-85
2021/04/13 05:48:13;;;;;;;8.73;3.47;;;2.70;90.80;;;;;;5055995;28;20201;-84
2021/04/13 05:50:42;;;;;;;18.67;4.87;;;2.70;90.90;;;;;;5054794;28;20548;-85
2021/04/13 05:53:08;;;;;;;9.07;3.63;;;2.70;90.90;;;;;;5054648;28;20664;-84
2021/04/13 05:55:35;;;;;;;14.03;4.20;;;2.80;91.00;;;;;;5055624;28;20179;-85
2021/04/13 05:58:22;;;;;;;16.37;4.33;;;2.80;90.80;;;;;;5056033;28;20643;-84
2021/04/13 06:00:52;;;;;;;13.50;3.70;;;2.80;90.50;;;;;;5055588;28;20211;-85
2021/04/13 06:03:21;;;;;;;11.27;4.03;;;2.80;90.50;;;;;;5055510;28;20198;-85
2021/04/13 06:05:48;;;;;;;13.90;4.03;;;2.80;90.40;;;;;;5054491;28;20176;-85
2021/04/13 06:08:15;;;;;;;10.50;3.70;;;2.80;90.40;;;;;;5054410;28;20206;-85
2021/04/13 06:10:41;;;;;;;11.50;4.10;;;2.80;90.50;;;;;;5055630;28;20203;-85
2021/04/13 06:13:07;;;;;;;12.77;4.43;;;2.90;90.60;;;;;;5055729;28;20529;-85
2021/04/13 06:15:33;;;;;;;12.23;4.33;;;3.00;90.60;;;;;;5055499;28;20168;-85
2021/04/13 06:17:59;;;;;;;15.73;3.97;;;3.00;90.70;;;;;;5055454;28;20174;-85
2021/04/13 06:20:27;;;;;;;10.20;4.30;;;3.10;90.50;;;;;;5055441;28;20178;-85
2021/04/13 06:22:53;;;;;;;14.37;3.63;;;3.10;90.40;;;;;;5055470;28;20593;-85
2021/04/13 06:25:21;;;;;;;12.60;2.97;;;3.20;90.40;;;;;;5055447;28;20204;-85
2021/04/13 06:27:47;;;;;;;8.87;2.83;;;3.20;90.00;;;;;;5055593;28;20198;-85
2021/04/13 06:30:14;;;;;;;12.17;2.87;;;3.30;90.10;;;;;;5053982;28;20598;-85
2021/04/13 06:32:40;;;;;;;7.77;3.07;;;3.30;90.10;;;;;;5053823;28;20235;-85
2021/04/13 06:35:07;;;;;;;8.27;2.83;;;3.40;89.50;;;;;;5053813;28;20188;-85
2021/04/13 06:37:35;;;;;;;7.97;2.40;;;3.40;89.40;;;;;;5054259;28;20217;-85
2021/04/13 06:40:05;;;;;;;8.63;2.63;;;3.40;89.50;;;;;;5054989;28;20608;-85
2021/04/13 06:42:30;;;;;;;14.07;2.57;;;3.50;89.50;;;;;;5053698;28;20180;-85
2021/04/13 06:45:11;;;;;;;10.80;2.90;;;3.50;89.70;;;;;;5053737;28;20726;-85
2021/04/13 06:48:04;;;;;;;8.80;2.47;;;3.50;89.40;;;;;;5053633;28;20207;-85
2021/04/13 06:50:44;;;;;;;8.77;2.40;;;3.40;89.40;;;;;;5053639;28;20636;-85
2021/04/13 06:53:16;;;;;;;10.70;2.80;;;3.50;89.50;;;;;;5054793;28;20210;-85
2021/04/13 06:56:06;;;;;;;15.37;2.63;;;3.70;89.50;;;;;;5053378;28;20163;-85
2021/04/13 06:58:59;;;;;;;11.80;2.50;;;3.80;90.00;;;;;;5054775;28;20627;-84
2021/04/13 07:01:36;;;;;;;13.43;2.50;;;4.00;89.20;;;;;;5056503;28;20153;-85
2021/04/13 07:04:17;;;;;;;11.30;2.73;;;4.10;89.70;;;;;;5054851;28;20213;-84
2021/04/13 07:06:52;;;;;;;12.10;2.83;;;4.20;89.40;;;;;;5054978;28;20166;-84
2021/04/13 07:09:43;;;;;;;10.93;3.00;;;4.20;89.10;;;;;;5054931;28;20252;-84
2021/04/13 07:12:17;;;;;;;11.43;2.70;;;4.30;89.30;;;;;;5055295;28;20657;-84
2021/04/13 07:15:05;;;;;;;8.67;2.47;;;4.20;88.70;;;;;;5053625;28;20348;-84
2021/04/13 07:17:46;;;;;;;6.67;2.00;;;4.40;88.90;;;;;;5055175;28;20183;-84
2021/04/13 07:20:23;;;;;;;14.17;2.90;;;4.30;88.20;;;;;;5054962;28;20168;-84
2021/04/13 07:22:55;;;;;;;12.30;2.80;;;4.50;88.30;;;;;;5054731;28;20645;-84
2021/04/13 07:25:24;;;;;;;12.20;3.50;;;4.70;88.80;;;;;;5055307;28;20194;-84
2021/04/13 07:27:54;;;;;;;11.73;3.23;;;4.70;88.10;;;;;;5054424;28;20197;-85
2021/04/13 07:30:37;;;;;;;14.23;3.67;;;4.70;87.70;;;;;;5053420;28;20193;-85
2021/04/13 07:33:05;;;;;;;14.97;3.17;;;5.00;88.40;;;;;;5054678;28;20694;-85
2021/04/13 07:35:35;;;;;;;8.93;2.47;;;4.80;87.80;;;;;;5053173;28;20184;-85
2021/04/13 07:38:07;;;;;;;8.80;3.27;;;4.70;87.30;;;;;;5052809;28;20186;-84
2021/04/13 07:40:36;;;;;;;13.27;2.80;;;4.40;86.80;;;;;;5052865;28;20219;-84
2021/04/13 07:43:21;;;;;;;11.97;3.17;;;4.50;88.00;;;;;;5052691;28;20228;-83
2021/04/13 07:46:04;;;;;;;11.77;3.17;;;4.80;88.40;;;;;;5054027;28;20159;-85
2021/04/13 07:48:53;;;;;;;11.93;3.23;;;4.90;88.30;;;;;;5054103;28;20187;-85
2021/04/13 07:51:39;;;;;;;13.30;3.50;;;4.90;87.80;;;;;;5052664;28;20679;-84
2021/04/13 07:54:08;;;;;;;17.20;3.33;;;5.20;88.70;;;;;;5048807;28;20247;-84
2021/04/13 07:56:47;;;;;;;12.93;3.27;;;5.10;87.70;;;;;;5052734;28;20543;-84
2021/04/13 07:59:19;;;;;;;10.80;2.50;;;5.20;87.80;;;;;;5054115;28;20179;-84
2021/04/13 08:01:47;;;;;;;11.97;2.90;;;5.30;87.90;;;;;;5053697;28;20148;-84
2021/04/13 08:04:19;;;;;;;16.90;2.87;;;5.50;88.00;;;;;;5053358;28;20209;-84
2021/04/13 08:06:59;;;;;;;16.97;2.63;;;5.60;87.50;;;;;;5053701;28;20211;-84
2021/04/13 08:09:59;;;;;;;16.03;3.03;;;5.80;87.20;;;;;;5052320;28;20171;-84
2021/04/13 08:12:29;;;;;;;17.50;3.40;;;6.00;86.70;;;;;;5052339;28;20229;-84
2021/04/13 08:14:55;;;;;;;23.00;4.27;;;5.90;85.80;;;;;;5053619;28;20230;-85
2021/04/13 08:17:42;;;;;;;18.20;2.73;;;6.10;86.00;;;;;;5051693;28;20212;-86
2021/04/13 08:20:11;;;;;;;14.80;3.47;;;6.30;85.20;;;;;;5052983;28;20174;-86
2021/04/13 08:23:24;;;;;;;13.33;3.40;;;6.40;84.40;;;;;;5053358;28;20646;-86
2021/04/13 08:25:54;;;;;;;15.30;3.03;;;6.60;83.20;;;;;;5049953;28;20217;-86
2021/04/13 08:28:35;;;;;;;13.23;2.73;;;6.80;81.50;;;;;;5052170;28;20673;-86
2021/04/13 08:34:24;;;;;;;15.87;3.13;;;6.70;79.80;;;;;;5053384;28;20227;-86
2021/04/13 08:37:09;;;;;;;17.67;3.50;;;6.60;78.10;;;;;;5051966;28;20173;-85
2021/04/13 08:39:48;;;;;;;17.37;3.37;;;6.60;78.20;;;;;;5051790;28;20179;-85
2021/04/13 08:42:52;;;;;;;21.53;3.80;;;6.80;75.70;;;;;;5053050;28;20566;-85
2021/04/13 08:45:33;;;;;;;22.03;3.40;;;7.20;74.70;;;;;;5052089;28;20209;-85
2021/04/13 08:48:36;;;;;;;14.20;3.77;;;7.30;73.80;;;;;;5053005;28;20243;-85
2021/04/13 08:51:14;;;;;;;17.27;3.33;;;7.60;73.80;;;;;;5052975;28;20246;-86
2021/04/13 08:53:50;;;;;;;15.10;3.53;;;7.50;70.50;;;;;;5053004;28;20541;-86
2021/04/13 08:56:23;;;;;;;16.90;4.37;;;7.10;70.10;;;;;;5053234;28;20168;-83
2021/04/13 08:58:54;;;;;;;15.77;3.00;;;7.20;70.00;;;;;;5053039;28;20175;-82
2021/04/13 09:01:23;;;;;;;11.80;2.93;;;7.50;70.30;;;;;;5052909;28;20187;-82
2021/04/13 09:03:48;;;;;;;12.63;2.93;;;7.80;68.80;;;;;;5051930;28;20217;-82
2021/04/13 09:06:39;;;;;;;22.80;4.23;;;8.00;67.20;;;;;;5052833;28;20610;-82
2021/04/13 09:09:30;;;;;;;21.37;3.27;;;8.20;68.30;;;;;;5051603;28;20203;-84
2021/04/13 09:12:17;;;;;;;23.23;3.70;;;8.40;68.60;;;;;;5051668;28;20192;-85
2021/04/13 09:15:06;;;;;;;15.67;3.73;;;8.60;69.00;;;;;;5051588;28;20188;-85
2021/04/13 09:17:59;;;;;;;18.67;3.27;;;8.80;67.70;;;;;;5052649;28;20172;-84
2021/04/13 09:20:40;;;;;;;21.70;3.40;;;8.80;67.80;;;;;;5053104;28;20183;-85
2021/04/13 09:23:19;;;;;;;15.13;3.30;;;8.60;66.90;;;;;;5051711;28;20168;-86
2021/04/13 09:26:09;;;;;;;21.57;3.27;;;8.00;64.20;;;;;;5053155;28;20700;-84
2021/04/13 09:29:01;;;;;;;19.90;3.00;;;8.20;65.10;;;;;;5052676;28;20184;-85
2021/04/13 09:31:45;;;;;;;18.77;3.53;;;8.50;65.50;;;;;;5054581;28;20278;-85
2021/04/13 09:34:33;;;;;;;9.33;2.87;;;8.70;62.70;;;;;;5055074;28;20565;-84
2021/04/13 09:37:11;;;;;;;15.73;3.23;;;8.80;60.60;;;;;;5057055;28;20621;-83
2021/04/13 09:40:03;;;;;;;10.60;2.67;;;8.90;61.70;;;;;;5057159;28;20254;-84
2021/04/13 09:42:52;;;;;;;10.63;2.57;;;8.80;60.40;;;;;;5056510;28;20597;-84
2021/04/13 09:45:32;;;;;;;15.63;2.97;;;8.40;61.30;;;;;;5056482;28;20747;-85
2021/04/13 09:48:23;;;;;;;14.83;3.10;;;8.10;63.80;;;;;;5056081;28;20191;-84
2021/04/13 09:51:12;;;;;;;16.43;2.73;;;7.50;68.00;;;;;;5054636;28;20266;-84
2021/04/13 09:54:15;;;;;;;20.03;3.10;;;7.40;68.30;;;;;;5051601;28;20249;-88
2021/04/13 09:57:19;;;;;;;17.00;2.80;;;7.70;69.10;;;;;;5055802;28;20690;-84
2021/04/13 10:00:11;;;;;;;29.93;3.77;;;7.80;69.00;;;;;;5056049;28;20202;-84
2021/04/13 10:03:01;;;;;;;10.80;3.00;;;7.90;68.70;;;;;;5054632;28;20198;-84
2021/04/13 10:05:37;;;;;;;17.07;3.10;;;7.80;67.70;;;;;;5056121;28;20282;-85
2021/04/13 10:08:18;;;;;;;15.57;3.17;;;8.00;66.30;;;;;;5054679;28;20679;-86
2021/04/13 10:11:04;;;;;;;14.47;2.60;;;8.10;64.20;;;;;;5054519;28;20219;-86
2021/04/13 10:14:10;;;;;;;14.53;2.70;;;7.90;63.20;;;;;;5056013;28;20195;-85
2021/04/13 10:16:57;;;;;;;11.90;2.60;;;8.40;62.70;;;;;;5055738;28;20187;-85
2021/04/13 10:20:01;;;;;;;12.80;2.70;;;8.80;62.60;;;;;;5054479;28;20708;-87
2021/04/13 10:22:52;;;;;;;11.03;3.17;;;9.00;61.60;;;;;;5054146;28;20160;-87
2021/04/13 10:25:30;;;;;;;17.97;3.00;;;9.00;59.50;;;;;;5055719;28;20188;-87
2021/04/13 10:28:10;;;;;;;14.07;2.60;;;8.80;59.80;;;;;;5054241;28;20218;-87
2021/04/13 10:30:48;;;;;;;10.30;2.17;;;8.90;62.00;;;;;;5055699;28;20152;-87
2021/04/13 10:33:57;;;;;;;13.70;2.50;;;9.30;61.00;;;;;;5054095;28;20172;-87
2021/04/13 10:36:23;;;;;;;21.00;2.57;;;9.20;58.90;;;;;;5055307;28;20225;-87
2021/04/13 10:39:06;;;;;;;9.00;2.33;;;8.70;57.30;;;;;;5055515;28;20172;-85
2021/04/13 10:42:03;;;;;;;11.70;2.50;;;9.00;59.80;;;;;;5053872;28;20168;-85
2021/04/13 10:45:05;;;;;;;12.17;2.83;;;9.20;61.00;;;;;;5055222;28;20192;-86
2021/04/13 10:47:50;;;;;;;10.37;2.60;;;9.20;58.50;;;;;;5055066;28;20563;-84
2021/04/13 10:50:48;;;;;;;8.50;2.00;;;9.20;57.90;;;;;;5053745;28;20544;-85
2021/04/13 10:53:47;;;;;;;19.37;2.77;;;8.90;57.40;;;;;;5053691;28;20642;-84
2021/04/13 10:56:28;;;;;;;10.63;2.30;;;8.70;56.90;;;;;;5053678;28;20247;-85
2021/04/13 10:59:31;;;;;;;12.00;2.37;;;8.90;58.40;;;;;;5054878;28;20160;-86
2021/04/13 11:02:22;;;;;;;13.03;2.40;;;9.10;58.00;;;;;;5053485;28;20180;-86
2021/04/13 11:05:12;;;;;;;13.73;3.07;;;9.20;55.90;;;;;;5140998;22;20868;-88
2021/04/13 11:07:59;;;;;;;12.63;2.63;;;9.40;56.10;;;;;;5039092;28;20185;-87
2021/04/13 11:10:58;;;;;;;10.57;2.77;;;9.60;55.50;;;;;;5038784;28;20597;-86
2021/04/13 11:13:57;;;;;;;9.67;2.33;;;9.50;49.00;;;;;;5038991;28;20654;-88
2021/04/13 11:17:22;;;;;;;8.30;2.13;;;9.70;54.00;;;;;;5037137;28;20715;-88
2021/04/13 11:20:13;;;;;;;12.87;3.03;;;9.80;53.60;;;;;;4976660;28;20560;-85
2021/04/13 11:22:44;;;;;;;8.50;2.13;;;9.60;56.40;;;;;;4975485;28;20727;-86
2021/04/13 11:25:14;;;;;;;13.60;3.37;;;9.70;55.40;;;;;;5009038;28;20299;-85
2021/04/13 11:27:56;;;;;;;12.23;3.43;;;10.00;55.50;;;;;;5034785;28;20204;-86
2021/04/13 11:30:40;;;;;;;14.90;2.77;;;10.30;56.10;;;;;;5036349;28;20169;-85
2021/04/13 11:33:24;;;;;;;11.20;2.23;;;10.00;55.90;;;;;;5035936;28;20160;-84
2021/04/13 11:35:52;;;;;;;6.23;1.87;;;9.40;57.00;;;;;;5035445;28;20212;-86
2021/04/13 11:38:45;;;;;;;8.37;2.20;;;9.00;56.90;;;;;;5035689;28;20688;-85
2021/04/13 11:41:36;;;;;;;9.83;2.00;;;9.30;57.00;;;;;;5034612;28;20185;-87
2021/04/13 11:44:32;;;;;;;12.40;3.00;;;9.20;58.60;;;;;;5034607;28;20200;-85
2021/04/13 11:47:13;;;;;;;8.80;2.13;;;8.80;59.10;;;;;;5033086;28;20219;-83
2021/04/13 11:49:42;;;;;;;11.57;2.27;;;9.00;60.50;;;;;;5033799;28;20160;-86
2021/04/13 11:52:19;;;;;;;11.77;3.40;;;9.70;58.70;;;;;;5036510;28;20204;-87
2021/04/13 11:54:53;;;;;;;10.33;2.17;;;10.00;54.90;;;;;;5035227;28;20200;-86
2021/04/13 11:57:22;;;;;;;6.53;1.80;;;9.70;52.60;;;;;;5034470;28;20716;-85
2021/04/13 12:00:09;;;;;;;10.17;2.67;;;9.30;53.90;;;;;;5033844;28;20598;-84
2021/04/13 12:02:43;;;;;;;13.43;2.30;;;9.10;55.90;;;;;;5032256;28;20267;-85
2021/04/13 12:05:24;;;;;;;12.17;2.53;;;9.00;55.90;;;;;;5032094;28;20771;-85
2021/04/13 12:07:50;;;;;;;5.43;1.90;;;9.20;57.10;;;;;;5032177;28;20291;-85
2021/04/13 12:10:30;;;;;;;11.60;2.87;;;9.50;57.30;;;;;;5032198;28;20212;-86
2021/04/13 12:13:03;;;;;;;15.27;2.60;;;9.30;55.90;;;;;;5033524;28;20169;-85
2021/04/13 12:15:34;;;;;;;7.60;2.13;;;9.40;57.20;;;;;;5033146;28;20569;-86
2021/04/13 12:18:21;;;;;;;10.93;2.23;;;9.80;56.90;;;;;;5034515;28;20522;-85
2021/04/13 12:20:47;;;;;;;8.77;1.70;;;9.90;54.00;;;;;;5034204;28;20179;-84
2021/04/13 12:23:12;;;;;;;8.30;2.03;;;10.00;52.20;;;;;;5033869;28;20182;-86
2021/04/13 12:26:01;;;;;;;11.33;2.30;;;10.30;54.30;;;;;;5033590;28;20202;-85
2021/04/13 12:28:29;;;;;;;15.07;2.10;;;10.20;53.40;;;;;;5033033;28;20215;-85
2021/04/13 12:31:22;;;;;;;15.90;2.47;;;10.30;51.60;;;;;;5033118;28;20195;-85
2021/04/13 12:33:52;;;;;;;11.07;2.60;;;10.10;51.90;;;;;;5033359;28;20210;-85
2021/04/13 12:36:44;;;;;;;6.60;2.03;;;10.30;52.20;;;;;;5035534;28;20215;-84
2021/04/13 12:39:33;;;;;;;8.03;2.47;;;10.20;51.50;;;;;;5034236;28;20179;-85
2021/04/13 12:42:00;;;;;;;12.50;2.53;;;10.20;53.50;;;;;;5023448;28;20181;-84
2021/04/13 12:44:27;;;;;;;12.30;2.50;;;10.30;55.00;;;;;;5034689;28;20215;-85
2021/04/13 12:46:56;;;;;;;5.70;1.67;;;10.40;55.80;;;;;;5033216;28;20177;-84
2021/04/13 12:49:34;;;;;;;7.30;2.03;;;10.10;54.20;;;;;;5032812;28;20183;-86
2021/04/13 12:52:04;;;;;;;10.13;2.03;;;10.00;54.40;;;;;;5035236;28;20153;-85
2021/04/13 12:54:41;;;;;;;9.37;2.60;;;10.00;56.10;;;;;;5034725;28;20201;-84
2021/04/13 12:57:11;;;;;;;8.97;2.40;;;10.30;58.00;;;;;;5034677;28;20179;-84
2021/04/13 12:59:38;;;;;;;5.63;1.83;;;10.30;57.00;;;;;;5033289;28;20165;-83
2021/04/13 13:02:07;;;;;;;11.33;2.63;;;10.70;55.20;;;;;;5034608;28;20672;-85
2021/04/13 13:04:40;;;;;;;11.07;2.00;;;10.30;55.10;;;;;;5032676;28;20212;-87
2021/04/13 13:07:14;;;;;;;11.37;2.37;;;10.70;55.70;;;;;;5037333;28;20199;-85
2021/04/13 13:09:40;;;;;;;15.90;2.63;;;10.60;57.10;;;;;;5035546;28;20286;-85
2021/04/13 13:12:16;;;;;;;16.77;3.30;;;10.30;57.60;;;;;;5035564;28;20570;-84
2021/04/13 13:14:44;;;;;;;8.27;2.43;;;10.20;56.60;;;;;;5035385;28;20198;-84
2021/04/13 13:17:16;;;;;;;7.27;1.73;;;10.20;56.40;;;;;;5035428;28;20531;-84
2021/04/13 13:19:43;;;;;;;11.73;2.43;;;9.90;56.80;;;;;;5035432;28;20200;-87
2021/04/13 13:22:19;;;;;;;11.57;2.20;;;10.10;58.10;;;;;;5036533;28;20274;-87
2021/04/13 13:24:49;;;;;;;12.17;2.03;;;9.90;57.70;;;;;;5038857;28;20742;-85
2021/04/13 13:27:35;;;;;;;7.57;2.13;;;9.40;58.50;;;;;;5038230;28;20196;-84
2021/04/13 13:30:06;;;;;;;7.13;1.70;;;8.90;58.90;;;;;;5037181;28;20160;-85
2021/04/13 13:32:34;;;;;;;7.13;1.60;;;8.90;59.10;;;;;;5037897;28;20161;-87
2021/04/13 13:35:03;;;;;;;9.10;1.77;;;9.20;58.70;;;;;;5036779;28;20193;-86
2021/04/13 13:37:40;;;;;;;11.37;2.37;;;9.60;57.00;;;;;;5037823;28;20267;-86
2021/04/13 13:40:18;;;;;;;7.50;1.87;;;9.60;56.30;;;;;;5036126;28;20167;-84
2021/04/13 13:42:45;;;;;;;12.57;2.03;;;9.80;58.00;;;;;;5036483;28;20688;-85
2021/04/13 13:45:34;;;;;;;9.10;1.87;;;9.90;56.40;;;;;;5036287;28;20610;-84